Terminal Aerodrome Forecast
Issued by NWS

Home | Current Version | Previous Version | Graphics & Text | Print | Product List | Glossary On
Versions: 1 2 3 4 5 6 7 8 9 10 11 12 13 14 15 16 17 18 19 20 21 22
000
FTUS43 KBIS 221140
TAFDIK
TAF
KDIK 221140Z 2212/2312 22011KT P6SM SCT080 BKN110 WS020/28035KT
     FM221500 26014G19KT P6SM FEW140 WS020/29045KT
     FM221700 29018G28KT P6SM SKC
     FM230000 30009KT P6SM FEW300
     FM230600 23007KT P6SM FEW300=

USA.gov is the U.S. government's official web portal to all federal, state and local government web resources and services.